createdAt,value
2018-09-06T00:00:09.370Z,21.83
2018-09-06T00:05:12.636Z,22.00
2018-09-06T00:10:15.935Z,22.90
2018-09-06T00:15:19.260Z,22.90
2018-09-06T00:20:22.564Z,24.43
2018-09-06T00:25:25.853Z,22.73
2018-09-06T00:30:29.125Z,22.87
2018-09-06T00:35:32.422Z,24.50
2018-09-06T00:40:35.704Z,24.60
2018-09-06T00:45:39.036Z,22.63
2018-09-06T00:50:42.303Z,22.33
2018-09-06T00:55:45.628Z,22.20
2018-09-06T01:00:48.936Z,27.17
2018-09-06T01:05:52.237Z,23.73
2018-09-06T01:10:55.537Z,22.77
2018-09-06T01:15:58.848Z,22.00
2018-09-06T01:21:02.144Z,22.67
2018-09-06T01:26:05.418Z,23.03
2018-09-06T01:31:08.692Z,23.57
2018-09-06T01:36:17.316Z,24.40
2018-09-06T01:41:20.624Z,23.70
2018-09-06T01:46:23.904Z,26.27
2018-09-06T01:51:27.154Z,29.73
2018-09-06T01:56:31.931Z,25.20
2018-09-06T02:01:36.992Z,25.10
2018-09-06T02:06:40.299Z,24.97
2018-09-06T02:11:43.600Z,23.67
2018-09-06T02:16:46.908Z,22.70
2018-09-06T02:21:50.260Z,22.40
2018-09-06T02:26:53.542Z,22.83
2018-09-06T02:31:56.838Z,23.07
2018-09-06T02:37:00.117Z,23.03
2018-09-06T02:42:03.436Z,22.33
2018-09-06T02:47:06.759Z,23.27
2018-09-06T02:52:10.064Z,23.03
2018-09-06T02:57:14.208Z,24.53
2018-09-06T03:02:17.516Z,23.40
2018-09-06T03:07:20.797Z,23.33
2018-09-06T03:12:24.063Z,25.80
2018-09-06T03:17:27.334Z,24.53
2018-09-06T03:22:30.688Z,27.20
2018-09-06T03:27:40.735Z,25.17
2018-09-06T03:32:44.062Z,25.97
2018-09-06T03:37:47.501Z,28.40
2018-09-06T03:42:50.832Z,28.17
2018-09-06T03:47:55.230Z,25.80
2018-09-06T03:52:58.688Z,26.73
2018-09-06T03:58:02.084Z,25.60
2018-09-06T04:03:05.444Z,23.87
2018-09-06T04:08:08.744Z,22.10
2018-09-06T04:13:12.044Z,22.00
2018-09-06T04:18:15.389Z,20.80
2018-09-06T04:23:25.489Z,21.77
2018-09-06T04:28:28.793Z,21.27
2018-09-06T04:33:32.095Z,23.33
2018-09-06T04:38:35.421Z,28.40
2018-09-06T04:43:38.792Z,28.87
2018-09-06T04:48:42.032Z,26.37
2018-09-06T04:53:45.312Z,24.57
2018-09-06T04:58:48.620Z,25.10
2018-09-06T05:03:52.419Z,25.60
2018-09-06T05:08:56.787Z,24.93
2018-09-06T05:14:00.091Z,25.37
2018-09-06T05:19:03.371Z,25.03
2018-09-06T05:24:06.643Z,26.83
2018-09-06T05:29:10.020Z,24.33
2018-09-06T05:34:13.395Z,22.77
2018-09-06T05:39:16.671Z,20.90
2018-09-06T05:44:19.950Z,20.73
2018-09-06T05:49:23.219Z,19.47
2018-09-06T05:54:26.499Z,19.13
2018-09-06T05:59:29.821Z,18.30
2018-09-06T06:04:33.041Z,18.03
2018-09-06T06:09:36.336Z,18.37
2018-09-06T06:14:39.639Z,17.13
2018-09-06T06:19:42.923Z,14.90
2018-09-06T06:24:46.203Z,15.17
2018-09-06T06:29:49.489Z,14.10
2018-09-06T06:34:52.771Z,13.83
2018-09-06T06:39:56.212Z,15.13
2018-09-06T06:44:59.388Z,15.83
2018-09-06T06:50:02.843Z,15.27
2018-09-06T06:55:06.696Z,14.50
2018-09-06T07:00:10.025Z,14.27
2018-09-06T07:05:13.300Z,14.40
2018-09-06T07:10:16.631Z,15.07
2018-09-06T07:15:19.945Z,14.90
2018-09-06T07:20:23.221Z,14.87
2018-09-06T07:25:26.535Z,18.63
2018-09-06T07:30:29.828Z,21.30
2018-09-06T07:35:39.791Z,23.27
2018-09-06T07:40:43.100Z,21.33
2018-09-06T07:45:46.357Z,20.90
2018-09-06T07:50:49.641Z,21.40
2018-09-06T07:55:52.927Z,20.70
2018-09-06T08:00:56.220Z,20.47
2018-09-06T08:05:59.510Z,20.37
2018-09-06T08:11:02.827Z,16.80
2018-09-06T08:16:06.140Z,16.53
2018-09-06T08:21:09.436Z,17.57
2018-09-06T08:26:12.720Z,16.30
2018-09-06T08:31:16.022Z,14.67
2018-09-06T08:36:19.336Z,14.07
2018-09-06T08:41:22.668Z,13.62
2018-09-06T08:46:25.935Z,14.75
2018-09-06T08:51:30.185Z,14.65
2018-09-06T08:56:33.476Z,14.50
2018-09-06T09:01:41.208Z,14.45
2018-09-06T09:06:44.468Z,16.10
2018-09-06T09:11:47.760Z,17.48
2018-09-06T09:16:51.052Z,16.73
2018-09-06T09:21:54.378Z,16.48
2018-09-06T09:26:57.620Z,16.02
2018-09-06T09:32:00.911Z,15.93
2018-09-06T09:37:04.207Z,15.70
2018-09-06T09:42:07.492Z,16.62
2018-09-06T09:52:13.228Z,15.83
2018-09-06T09:57:16.523Z,16.27
2018-09-06T10:02:25.115Z,15.78
2018-09-06T10:07:33.885Z,16.32
2018-09-06T10:12:37.156Z,15.83
2018-09-06T10:17:40.493Z,14.43
2018-09-06T10:22:43.771Z,12.20
2018-09-06T10:27:47.074Z,12.68
2018-09-06T10:32:50.398Z,13.60
2018-09-06T10:37:53.687Z,12.35
2018-09-06T10:42:56.943Z,12.10
2018-09-06T10:48:00.278Z,11.03
2018-09-06T10:53:04.448Z,10.58
2018-09-06T10:58:07.744Z,10.28
2018-09-06T11:03:11.006Z,10.08
2018-09-06T11:08:14.916Z,8.58
2018-09-06T11:13:18.170Z,8.28
2018-09-06T11:18:21.453Z,8.88
2018-09-06T11:23:25.731Z,8.83
2018-09-06T11:28:28.968Z,8.15
2018-09-06T11:33:32.288Z,8.28
2018-09-06T11:38:35.581Z,6.97
2018-09-06T11:43:38.871Z,8.38
2018-09-06T11:48:42.173Z,7.28
2018-09-06T11:53:45.498Z,6.90
2018-09-06T11:58:48.776Z,6.35
2018-09-06T12:03:52.096Z,6.08
2018-09-06T12:08:55.360Z,6.03
2018-09-06T12:13:58.692Z,6.28
2018-09-06T12:19:02.004Z,6.87
2018-09-06T12:24:05.292Z,6.08
2018-09-06T12:29:08.564Z,6.35
2018-09-06T12:34:11.896Z,6.95
2018-09-06T12:39:15.296Z,6.12
2018-09-06T12:44:18.573Z,5.92
2018-09-06T12:49:22.169Z,6.12
2018-09-06T12:54:25.428Z,6.20
2018-09-06T12:59:29.555Z,6.35
2018-09-06T13:04:32.872Z,6.30
2018-09-06T13:09:36.144Z,6.58
2018-09-06T13:14:39.436Z,6.80
2018-09-06T13:19:42.703Z,6.80
2018-09-06T13:24:45.960Z,6.53
2018-09-06T13:29:49.201Z,6.42
2018-09-06T13:34:52.458Z,6.10
2018-09-06T13:39:55.736Z,6.50
2018-09-06T13:44:59.041Z,6.30
2018-09-06T13:50:02.329Z,7.12
2018-09-06T13:55:05.712Z,6.67
2018-09-06T14:00:09.040Z,6.60
2018-09-06T14:05:12.407Z,6.78
2018-09-06T14:10:15.629Z,6.80
2018-09-06T14:15:18.916Z,6.28
2018-09-06T14:20:22.183Z,6.20
2018-09-06T14:25:25.464Z,6.55
2018-09-06T14:30:28.765Z,6.40
2018-09-06T14:35:32.072Z,5.80
2018-09-06T14:40:35.340Z,6.40
2018-09-06T14:45:38.573Z,6.17
2018-09-06T14:50:41.847Z,6.75
2018-09-06T14:55:45.104Z,6.87
2018-09-06T15:00:48.539Z,6.78
2018-09-06T15:05:51.847Z,6.20
2018-09-06T15:10:55.148Z,6.45
2018-09-06T15:15:58.409Z,6.80
2018-09-06T15:21:01.670Z,6.10
2018-09-06T15:26:04.981Z,6.50
2018-09-06T15:31:08.324Z,6.80
2018-09-06T15:36:11.588Z,6.53
2018-09-06T15:41:14.888Z,6.30
2018-09-06T15:46:18.196Z,6.78
2018-09-06T15:51:21.573Z,6.85
2018-09-06T15:56:24.860Z,6.40
2018-09-06T16:01:28.099Z,7.33
2018-09-06T16:06:31.407Z,6.62
2018-09-06T16:11:34.797Z,7.17
2018-09-06T16:16:38.211Z,6.90
2018-09-06T16:21:41.575Z,6.50
2018-09-06T16:26:45.100Z,6.72
2018-09-06T16:31:49.652Z,6.80
2018-09-06T16:36:52.919Z,6.42
2018-09-06T16:41:56.527Z,6.87
2018-09-06T16:47:00.771Z,5.97
2018-09-06T16:52:04.047Z,6.40
2018-09-06T16:57:07.349Z,6.90
2018-09-06T17:02:10.592Z,6.55
2018-09-06T17:07:13.878Z,6.72
2018-09-06T17:12:17.162Z,6.97
2018-09-06T17:17:20.152Z,7.00
2018-09-06T17:22:23.412Z,6.90
2018-09-06T17:27:27.152Z,7.40
2018-09-06T17:32:30.477Z,8.07
2018-09-06T17:37:33.711Z,7.47
2018-09-06T17:42:36.979Z,7.63
2018-09-06T17:47:40.327Z,8.40
2018-09-06T17:52:43.665Z,7.93
2018-09-06T17:57:47.351Z,8.23
2018-09-06T18:02:51.110Z,9.00
2018-09-06T18:07:54.688Z,9.10
2018-09-06T18:12:58.469Z,9.10
2018-09-06T18:18:02.239Z,9.00
2018-09-06T18:23:05.585Z,9.57
2018-09-06T18:28:08.931Z,8.77
2018-09-06T18:33:12.271Z,8.43
2018-09-06T18:38:15.589Z,9.13
2018-09-06T18:43:18.873Z,9.40
2018-09-06T18:48:21.998Z,9.23
2018-09-06T18:53:25.480Z,9.17
2018-09-06T18:58:28.749Z,9.27
2018-09-06T19:03:33.267Z,9.13
2018-09-06T19:08:36.758Z,9.97
2018-09-06T19:13:40.282Z,9.33
2018-09-06T19:18:43.750Z,10.23
2018-09-06T19:23:47.180Z,9.67
2018-09-06T19:28:50.782Z,9.30
2018-09-06T19:33:54.377Z,9.87
2018-09-06T19:38:57.862Z,9.97
2018-09-06T19:44:04.429Z,9.97
2018-09-06T19:49:08.575Z,9.27
2018-09-06T19:54:12.170Z,10.00
2018-09-06T19:59:15.389Z,9.87
2018-09-06T20:04:18.739Z,9.67
2018-09-06T20:09:22.347Z,10.20
2018-09-06T20:14:25.751Z,10.07
2018-09-06T20:19:29.048Z,9.60
2018-09-06T20:24:34.093Z,9.77
2018-09-06T20:29:37.784Z,9.57
2018-09-06T20:34:42.434Z,10.07
2018-09-06T20:39:46.271Z,9.50
2018-09-06T20:44:49.679Z,10.40
2018-09-06T20:49:53.971Z,9.27
2018-09-06T20:54:57.304Z,9.27
2018-09-06T21:00:01.133Z,9.53
2018-09-06T21:05:04.500Z,10.03
2018-09-06T21:10:08.550Z,9.37
2018-09-06T21:15:14.733Z,10.60
2018-09-06T21:20:20.496Z,9.67
2018-09-06T21:25:25.747Z,9.47
2018-09-06T21:30:32.541Z,10.13
2018-09-06T21:35:37.457Z,10.53
2018-09-06T21:40:42.111Z,10.10
2018-09-06T21:45:47.247Z,10.70
2018-09-06T21:50:53.026Z,10.60
2018-09-06T21:55:57.521Z,10.73
2018-09-06T22:01:03.855Z,11.03
2018-09-06T22:06:08.964Z,10.40
2018-09-06T22:11:12.283Z,11.47
2018-09-06T22:16:16.468Z,10.80
2018-09-06T22:21:20.293Z,11.17
2018-09-06T22:26:24.072Z,11.17
2018-09-06T22:31:28.073Z,12.10
2018-09-06T22:36:31.397Z,11.53
2018-09-06T22:41:34.484Z,10.97
2018-09-06T22:46:37.867Z,12.00
2018-09-06T22:51:41.687Z,12.90
2018-09-06T22:56:45.391Z,12.53
2018-09-06T23:01:48.735Z,13.30
2018-09-06T23:06:52.222Z,12.47
2018-09-06T23:11:55.693Z,13.70
2018-09-06T23:17:05.649Z,14.60
2018-09-06T23:22:08.960Z,15.33
2018-09-06T23:27:12.606Z,18.03
2018-09-06T23:32:15.837Z,21.57
2018-09-06T23:37:19.138Z,22.73
2018-09-06T23:42:24.939Z,21.20
2018-09-06T23:47:28.293Z,17.73
2018-09-06T23:52:31.789Z,18.10
2018-09-06T23:57:35.330Z,16.93
